Radar AviationWeather DUATS TFRs Wunderground Accuweather Weather.com

alt : Radar

TAFs

KDTW 230401Z 2304/2406 07005KT 1/2SM FG VV002
     TEMPO 2304/2307 1SM BR OVC003
   FM230700 06006KT 1/4SM FG VV002
   FM231200 05007KT 1SM -RA BR OVC005
   FM231800 03006KT 1 1/2SM -RA BR OVC008
KFWA 230357Z 2304/2324 03009KT 3SM BR OVC005
     TEMPO 2304/2306 1 1/2SM BR OVC003
   FM230600 01009KT 1/2SM FG OVC003
   FM231800 01009KT 2SM BR OVC006
KJXN 230331Z 2304/2324 03004KT 1/4SM FG OVC002
     TEMPO 2304/2306 1/4SM FG VV002
   FM230600 03005KT 1/4SM FG OVC002
   FM231500 03006KT 1/2SM -RA FG OVC003
KCLE 230317Z 2303/2406 02005KT P6SM OVC100
   FM230800 05008KT 5SM BR VCSH OVC025
   FM231000 04010KT 3SM -RA BR OVC008
   FM231400 04010KT 2SM -RA BR OVC004
KTOL 230228Z 2302/2324 07008KT 2SM BR OVC002
     TEMPO 2304/2308 3/4SM BR
   FM231200 03008KT 3SM BR VCSH OVC006
   FM231700 03008KT 5SM -RA BR OVC006
KFDY 230132Z 2302/2324 04010KT 2SM BR OVC002
   FM230700 04008KT 4SM BR OVC006
   FM231200 04010KT 3SM BR VCSH OVC004
   FM231700 03008KT 5SM -RA BR OVC006

METARs

KDUH 230414Z AUTO 07006KT 7SM OVC003 05/05 A2963 RMK AO2 T00530046
KCLE 230413Z 02006KT 8SM -RA BKN003 BKN031 OVC070 05/03 A2959 RMK AO2 RAB0354 P0000 T00500028
KFDY 230409Z AUTO 01012KT 1 1/4SM BR OVC002 06/04 A2956 RMK AO2 T00560039
KTOL 230406Z 06013KT 2 1/2SM BR OVC002 04/04 A2962 RMK AO2 T00440044 $
KJXN 230356Z AUTO 05004KT 1/2SM FG VV002 07/06 A2964 RMK AO2 SLP041 T00670061
KFWA 230354Z 04011KT 4SM BR OVC005 09/08 A2959 RMK AO2 SLP022 T00940078
KDTW 230353Z 07005KT 1/2SM R03R/4500VP6000FT BR OVC002 08/08 A2965 RMK AO2 SFC VIS 1 SLP042 T00780078 $
KTDZ 230353Z AUTO 04008KT 1 1/4SM BR OVC002 03/03 A2963 RMK AO2 SLP034 T00280028

alt : Satellite

alt : TFRs